Derby, Connecticut
Current Conditions -  °F | °C
As of 10:52 PM on Friday 19 Dec 2014 (Local Time) from KBDR Reporting Station
Clear Clear  
Wind Chill: 22°   Ceiling: Unl
Heat Index: 30°   Visibility: 10mi
Dew Point: 21°   Wind: 8mph
Humidity: 69%   Direction: 330°NNW
Pressure: 30.17"   Gusts: NA
Location:  41.32°N, 73.09°W
Report Text: KBDR 200352Z AUTO 33007KT 10SM CLR M01/M06 A3017 RMK AO2 SLP214 T10111061
Loading
Personal Weather Stations






























Interactive Weather Map New forecast layout! Learn more

10-Day Weather Forecast

Advertisements
Track Severe Weather on mobile